Погода Ситуэна 2 недели

Ракхайн, Мьянма

01 - 14 марта
  • 01марта
    Сегодня
    +18°
    +33°
    Ясно и безоблачно
    ВремяПогодаТемператураВлажностьДавлениеВетер, м/сВероятность осадков
    00:30Ясно и безоблачно+22°C59 %760 мм4.4 м/с2 %
    03:30Ясно и безоблачно+21°C63 %759 мм3.9 м/с2 %
    06:30Ясно и безоблачно+19°C70 %760 мм2.4 м/с2 %
    09:30Ясно и безоблачно+26°C55 %761 мм3.3 м/с2 %
    12:30Ясно и безоблачно+31°C41 %760 мм3.9 м/с2 %
    15:30Ясно и безоблачно+33°C40 %757 мм4.3 м/с2 %
    18:30Ясно и безоблачно+27°C51 %757 мм3.9 м/с2 %
    21:30Ясно и безоблачно+24°C53 %759 мм2.9 м/с2 %
  • 02марта
    Суббота
    +18°
    +33°
    Ясно и безоблачно
    ВремяПогодаТемператураВлажностьДавлениеВетер, м/сВероятность осадков
    00:30Ясно и безоблачно+22°C55 %759 мм5.1 м/с2 %
    03:30Ясно и безоблачно+21°C58 %758 мм3.8 м/с2 %
    06:30Ясно и безоблачно+19°C61 %759 мм2.5 м/с2 %
    09:30Ясно и безоблачно+25°C51 %761 мм3.3 м/с2 %
    12:30Ясно и безоблачно+31°C40 %759 мм3.8 м/с2 %
    15:30Ясно и безоблачно+32°C42 %757 мм4.1 м/с2 %
    18:30Ясно и безоблачно+27°C54 %757 мм3.5 м/с2 %
    21:30Ясно и безоблачно+24°C61 %759 мм2.7 м/с2 %
  • 03марта
    Воскресенье
    +18°
    +32°
    Ясно и безоблачно
    ВремяПогодаТемператураВлажностьДавлениеВетер, м/сВероятность осадков
    00:30Ясно и безоблачно+22°C61 %759 мм3.7 м/с2 %
    03:30Ясно и безоблачно+20°C66 %758 мм2.7 м/с2 %
    06:30Ясно и безоблачно+18°C70 %759 мм2.0 м/с2 %
    09:30Ясно и безоблачно+25°C56 %760 мм2.8 м/с2 %
    12:30Ясно и безоблачно+31°C50 %759 мм3.5 м/с2 %
    15:30Ясно и безоблачно+32°C52 %757 мм4.2 м/с2 %
    18:30Ясно и безоблачно+27°C66 %757 мм3.4 м/с2 %
    21:30Ясно и безоблачно+24°C70 %758 мм2.5 м/с2 %
  • 04марта
    Понедельник
    +20°
    +33°
    Ясно и безоблачно
    ВремяПогодаТемператураВлажностьДавлениеВетер, м/сВероятность осадков
    00:30Ясно и безоблачно+23°C67 %758 мм3.6 м/с2 %
    03:30Ясно и безоблачно+21°C71 %757 мм2.3 м/с2 %
    06:30Ясно и безоблачно+19°C83 %759 мм2.1 м/с2 %
    09:30Ясно и безоблачно+26°C58 %760 мм3.1 м/с2 %
    12:30Ясно и безоблачно+32°C52 %759 мм3.7 м/с2 %
    15:30Ясно и безоблачно+33°C56 %757 мм4.5 м/с2 %
    18:30Ясно и безоблачно+28°C58 %756 мм3.5 м/с2 %
    21:30Ясно и безоблачно+26°C60 %758 мм2.8 м/с2 %
  • 05марта
    Вторник
    +20°
    +33°
    Ясно и безоблачно
    ВремяПогодаТемператураВлажностьДавлениеВетер, м/сВероятность осадков
    00:30Ясно и безоблачно+24°C63 %758 мм4.5 м/с2 %
    03:30Ясно и безоблачно+22°C76 %757 мм4.3 м/с2 %
    06:30Ясно и безоблачно+21°C82 %758 мм2.4 м/с2 %
    09:30Ясно и безоблачно+27°C69 %760 мм3.1 м/с2 %
    12:30Ясно и безоблачно+33°C57 %759 мм3.8 м/с2 %
    15:30Ясно и безоблачно+33°C62 %757 мм4.2 м/с2 %
    18:30Ясно и безоблачно+28°C79 %757 мм3.5 м/с2 %
    21:30Ясно и безоблачно+25°C77 %758 мм2.5 м/с2 %
Мы используем cookies
Соглашаюсь